Time,TemperatureF,DewpointF,PressureIn,WindDirection,WindDirectionDegrees,WindSpeedMPH,WindSpeedGustMPH,Humidity,HourlyPrecipIn,Conditions,Clouds,dailyrainin,SoftwareType,DateUTC
2013-07-29 00:04:00,69.8,69.0,30.00,SSW,209,0.0,2.0,97,0.00,,,0.00,weatherlink.com 1.10,2013-07-29 04:04:00,
2013-07-29 00:19:00,70.1,69.0,30.00,SW,235,0.0,2.0,96,0.00,,,0.00,weatherlink.com 1.10,2013-07-29 04:19:00,
2013-07-29 00:34:00,68.8,67.0,30.00,SE,128,6.0,10.0,94,0.00,,,0.00,weatherlink.com 1.10,2013-07-29 04:34:00,
2013-07-29 00:49:00,67.7,67.0,30.00,East,89,4.0,7.0,96,0.00,,,0.00,weatherlink.com 1.10,2013-07-29 04:49:00,
2013-07-29 01:04:00,68.1,67.0,29.99,ESE,121,8.0,8.0,97,0.00,,,0.00,weatherlink.com 1.10,2013-07-29 05:04:00,
2013-07-29 01:20:00,66.5,66.0,29.99,SE,134,5.0,9.0,97,0.00,,,0.00,weatherlink.com 1.10,2013-07-29 05:20:00,
2013-07-29 01:35:00,66.7,66.0,29.99,SSW,196,3.0,7.0,98,0.00,,,0.00,weatherlink.com 1.10,2013-07-29 05:35:00,
2013-07-29 01:50:00,67.3,67.0,30.00,SE,134,6.0,11.0,98,0.00,,,0.00,weatherlink.com 1.10,2013-07-29 05:50:00,
2013-07-29 02:05:00,67.9,67.0,30.00,South,188,4.0,11.0,98,0.00,,,0.00,weatherlink.com 1.10,2013-07-29 06:05:00,
2013-07-29 02:20:00,68.5,68.0,30.00,SSW,210,6.0,9.0,97,0.00,,,0.00,weatherlink.com 1.10,2013-07-29 06:20:00,
2013-07-29 02:35:00,68.9,68.0,29.99,SW,221,7.0,8.0,97,0.00,,,0.00,weatherlink.com 1.10,2013-07-29 06:35:00,
2013-07-29 02:50:00,69.1,68.0,29.99,SW,214,4.0,5.0,97,0.00,,,0.00,weatherlink.com 1.10,2013-07-29 06:50:00,
2013-07-29 03:05:00,69.0,68.0,29.99,West,280,0.0,3.0,97,0.00,,,0.00,weatherlink.com 1.10,2013-07-29 07:05:00,
2013-07-29 03:20:00,69.4,69.0,29.99,SSW,197,1.0,3.0,98,0.00,,,0.00,weatherlink.com 1.10,2013-07-29 07:20:00,
2013-07-29 03:35:00,69.6,69.0,30.00,SSE,163,2.0,4.0,97,0.00,,,0.00,weatherlink.com 1.10,2013-07-29 07:35:00,
2013-07-29 03:50:00,68.6,68.0,30.00,ESE,108,1.0,4.0,97,0.00,,,0.00,weatherlink.com 1.10,2013-07-29 07:50:00,
2013-07-29 04:05:00,68.7,68.0,30.00,South,188,3.0,4.0,98,0.00,,,0.00,weatherlink.com 1.10,2013-07-29 08:05:00,
2013-07-29 04:20:00,68.9,68.0,30.00,SSW,211,4.0,5.0,98,0.00,,,0.00,weatherlink.com 1.10,2013-07-29 08:20:00,
2013-07-29 04:35:00,69.5,69.0,30.01,SSW,208,4.0,6.0,98,0.00,,,0.00,weatherlink.com 1.10,2013-07-29 08:35:00,
2013-07-29 04:50:00,69.6,69.0,30.01,SSW,193,5.0,8.0,97,0.00,,,0.00,weatherlink.com 1.10,2013-07-29 08:50:00,
2013-07-29 05:06:00,69.8,69.0,30.02,SW,219,7.0,7.0,97,0.00,,,0.00,weatherlink.com 1.10,2013-07-29 09:06:00,
2013-07-29 05:20:00,69.8,69.0,30.01,SSW,210,6.0,8.0,97,0.00,,,0.00,weatherlink.com 1.10,2013-07-29 09:20:00,
2013-07-29 05:35:00,70.0,69.0,30.02,SW,231,4.0,7.0,97,0.00,,,0.00,weatherlink.com 1.10,2013-07-29 09:35:00,
2013-07-29 05:50:00,70.3,69.0,30.02,SW,218,1.0,6.0,96,0.00,,,0.00,weatherlink.com 1.10,2013-07-29 09:50:00,
2013-07-29 06:05:00,70.2,69.0,30.02,SSW,203,3.0,5.0,96,0.00,,,0.00,weatherlink.com 1.10,2013-07-29 10:05:00,
2013-07-29 06:20:00,70.3,69.0,30.02,SSW,205,3.0,6.0,96,0.00,,,0.00,weatherlink.com 1.10,2013-07-29 10:20:00,
2013-07-29 06:35:00,71.1,70.0,30.01,South,173,3.0,8.0,95,0.00,,,0.00,weatherlink.com 1.10,2013-07-29 10:35:00,
2013-07-29 06:50:00,70.0,68.0,30.01,SE,146,5.0,8.0,94,0.00,,,0.00,weatherlink.com 1.10,2013-07-29 10:50:00,
2013-07-29 07:20:00,70.0,69.0,30.02,SW,217,4.0,7.0,95,0.00,,,0.00,weatherlink.com 1.10,2013-07-29 11:20:00,
2013-07-29 07:35:00,70.4,69.0,30.02,SSW,195,5.0,6.0,94,0.00,,,0.00,weatherlink.com 1.10,2013-07-29 11:35:00,
2013-07-29 07:50:00,70.3,69.0,30.02,South,180,4.0,8.0,94,0.00,,,0.00,weatherlink.com 1.10,2013-07-29 11:50:00,
2013-07-29 08:05:00,71.1,69.0,30.03,South,184,1.0,6.0,94,0.00,,,0.00,weatherlink.com 1.10,2013-07-29 12:05:00,
2013-07-29 08:20:00,72.1,70.0,30.03,SW,215,3.0,7.0,92,0.00,,,0.00,weatherlink.com 1.10,2013-07-29 12:20:00,
2013-07-29 08:35:00,71.7,69.0,30.03,South,186,5.0,12.0,92,0.00,,,0.00,weatherlink.com 1.10,2013-07-29 12:35:00,
2013-07-29 09:05:00,71.0,69.0,30.02,SSE,148,3.0,9.0,93,0.00,,,0.00,weatherlink.com 1.10,2013-07-29 13:05:00,
2013-07-29 09:20:00,71.2,69.0,30.02,South,183,4.0,9.0,91,0.00,,,0.00,weatherlink.com 1.10,2013-07-29 13:20:00,
2013-07-29 09:35:00,71.8,69.0,30.02,SSW,193,6.0,9.0,89,0.00,,,0.00,weatherlink.com 1.10,2013-07-29 13:35:00,
2013-07-29 09:50:00,72.7,69.0,30.02,SSE,156,8.0,10.0,89,0.00,,,0.00,weatherlink.com 1.10,2013-07-29 13:50:00,
2013-07-29 10:05:00,73.0,69.0,30.03,South,187,7.0,10.0,88,0.00,,,0.00,weatherlink.com 1.10,2013-07-29 14:05:00,
2013-07-29 10:35:00,72.5,70.0,30.04,SSE,167,6.0,11.0,90,0.00,,,0.00,weatherlink.com 1.10,2013-07-29 14:35:00,
2013-07-29 10:50:00,72.1,69.0,30.04,South,181,8.0,11.0,89,0.00,,,0.00,weatherlink.com 1.10,2013-07-29 14:50:00,
2013-07-29 11:05:00,72.4,69.0,30.04,South,170,2.0,7.0,89,0.00,,,0.00,weatherlink.com 1.10,2013-07-29 15:05:00,
2013-07-29 11:20:00,72.9,69.0,30.05,South,169,1.0,7.0,88,0.00,,,0.00,weatherlink.com 1.10,2013-07-29 15:20:00,
2013-07-29 11:36:00,73.4,70.0,30.05,SSW,204,5.0,7.0,90,0.00,,,0.00,weatherlink.com 1.10,2013-07-29 15:36:00,
2013-07-29 11:51:00,73.8,70.0,30.05,South,191,8.0,10.0,88,0.00,,,0.00,weatherlink.com 1.10,2013-07-29 15:51:00,
2013-07-29 12:06:00,73.4,70.0,30.05,SSE,150,8.0,11.0,89,0.00,,,0.00,weatherlink.com 1.10,2013-07-29 16:06:00,
2013-07-29 12:21:00,73.2,70.0,30.05,SSE,166,6.0,9.0,90,0.00,,,0.00,weatherlink.com 1.10,2013-07-29 16:21:00,
2013-07-29 12:36:00,73.8,71.0,30.04,SSW,200,5.0,7.0,90,0.00,,,0.00,weatherlink.com 1.10,2013-07-29 16:36:00,
2013-07-29 12:51:00,74.4,71.0,30.04,SSW,197,2.0,7.0,89,0.00,,,0.00,weatherlink.com 1.10,2013-07-29 16:51:00,
2013-07-29 13:06:00,74.4,71.0,30.04,SSW,200,6.0,8.0,90,0.00,,,0.00,weatherlink.com 1.10,2013-07-29 17:06:00,
2013-07-29 13:21:00,74.6,71.0,30.04,SSW,208,6.0,9.0,89,0.00,,,0.00,weatherlink.com 1.10,2013-07-29 17:21:00,
2013-07-29 13:36:00,74.7,72.0,30.04,SSW,208,6.0,8.0,90,0.00,,,0.00,weatherlink.com 1.10,2013-07-29 17:36:00,
2013-07-29 13:51:00,74.7,72.0,30.04,SW,219,4.0,8.0,90,0.00,,,0.00,weatherlink.com 1.10,2013-07-29 17:51:00,
2013-07-29 14:21:00,72.9,70.0,30.03,SE,143,6.0,9.0,91,0.00,,,0.00,weatherlink.com 1.10,2013-07-29 18:21:00,
2013-07-29 14:36:00,74.1,71.0,30.03,SSE,153,4.0,9.0,90,0.00,,,0.00,weatherlink.com 1.10,2013-07-29 18:36:00,
2013-07-29 15:06:00,74.9,72.0,30.02,SSW,204,8.0,8.0,89,0.00,,,0.00,weatherlink.com 1.10,2013-07-29 19:06:00,
2013-07-29 15:36:00,74.5,71.0,30.02,SE,143,4.0,8.0,89,0.00,,,0.00,weatherlink.com 1.10,2013-07-29 19:36:00,
2013-07-29 16:06:00,73.9,71.0,30.02,SSE,150,5.0,6.0,90,0.00,,,0.00,weatherlink.com 1.10,2013-07-29 20:06:00,
2013-07-29 16:21:00,73.7,71.0,30.01,ESE,103,5.0,6.0,90,0.00,,,0.00,weatherlink.com 1.10,2013-07-29 20:21:00,
2013-07-29 16:36:00,71.9,69.0,30.01,ESE,105,7.0,11.0,91,0.00,,,0.00,weatherlink.com 1.10,2013-07-29 20:36:00,
2013-07-29 16:51:00,72.1,69.0,30.01,ESE,108,7.0,8.0,91,0.00,,,0.00,weatherlink.com 1.10,2013-07-29 20:51:00,
2013-07-29 17:06:00,71.8,69.0,30.00,East,97,5.0,6.0,92,0.00,,,0.00,weatherlink.com 1.10,2013-07-29 21:06:00,
2013-07-29 17:36:00,71.2,69.0,30.01,SSW,193,3.0,9.0,92,0.00,,,0.00,weatherlink.com 1.10,2013-07-29 21:36:00,
2013-07-29 17:51:00,70.7,69.0,30.00,SE,132,6.0,11.0,95,0.00,,,0.00,weatherlink.com 1.10,2013-07-29 21:51:00,
2013-07-29 18:06:00,70.9,70.0,30.00,ESE,122,6.0,11.0,95,0.00,,,0.00,weatherlink.com 1.10,2013-07-29 22:06:00,
2013-07-29 18:21:00,71.3,70.0,30.01,SE,131,2.0,8.0,95,0.00,,,0.00,weatherlink.com 1.10,2013-07-29 22:21:00,
2013-07-29 18:36:00,71.2,70.0,30.00,SSE,149,4.0,7.0,95,0.00,,,0.00,weatherlink.com 1.10,2013-07-29 22:36:00,
2013-07-29 19:06:00,70.3,69.0,30.01,East,84,1.0,7.0,95,0.00,,,0.00,weatherlink.com 1.10,2013-07-29 23:06:00,
2013-07-29 19:21:00,70.6,70.0,30.01,SW,215,1.0,4.0,97,0.00,,,0.00,weatherlink.com 1.10,2013-07-29 23:21:00,
2013-07-29 19:36:00,71.1,70.0,30.01,East,100,4.0,5.0,96,0.00,,,0.00,weatherlink.com 1.10,2013-07-29 23:36:00,
2013-07-29 19:51:00,71.1,70.0,30.02,East,101,5.0,6.0,97,0.00,,,0.00,weatherlink.com 1.10,2013-07-29 23:51:00,
2013-07-29 20:21:00,72.0,71.0,30.02,SSW,194,7.0,11.0,98,0.00,,,0.00,weatherlink.com 1.10,2013-07-30 00:21:00,
2013-07-29 20:36:00,72.2,72.0,30.02,SW,219,7.0,10.0,98,0.00,,,0.00,weatherlink.com 1.10,2013-07-30 00:36:00,
2013-07-29 20:51:00,71.4,71.0,30.03,SW,221,10.0,13.0,97,0.00,,,0.00,weatherlink.com 1.10,2013-07-30 00:51:00,
2013-07-29 21:06:00,71.6,71.0,30.03,SW,214,8.0,11.0,98,0.00,,,0.00,weatherlink.com 1.10,2013-07-30 01:06:00,
2013-07-29 21:21:00,72.0,72.0,30.03,SW,222,6.0,9.0,99,0.00,,,0.00,weatherlink.com 1.10,2013-07-30 01:21:00,
2013-07-29 21:36:00,72.1,72.0,30.03,SW,228,6.0,11.0,99,0.00,,,0.00,weatherlink.com 1.10,2013-07-30 01:36:00,
2013-07-29 22:36:00,72.9,72.0,30.03,NW,304,3.0,11.0,98,0.00,,,0.00,weatherlink.com 1.10,2013-07-30 02:36:00,
2013-07-29 22:51:00,73.0,72.0,30.03,West,274,2.0,10.0,97,0.00,,,0.00,weatherlink.com 1.10,2013-07-30 02:51:00,
2013-07-29 23:06:00,73.2,72.0,30.03,NW,305,3.0,10.0,97,0.00,,,0.00,weatherlink.com 1.10,2013-07-30 03:06:00,
2013-07-29 23:21:00,73.3,72.0,30.03,SSW,211,3.0,10.0,96,0.00,,,0.00,weatherlink.com 1.10,2013-07-30 03:21:00,
2013-07-29 23:36:00,73.1,72.0,30.03,SW,224,7.0,9.0,96,0.00,,,0.00,weatherlink.com 1.10,2013-07-30 03:36:00,